createdAt,value
2022-10-11T00:00:31.086Z,63.92
2022-10-11T00:06:08.010Z,63.77
2022-10-11T00:11:30.332Z,63.63
2022-10-11T00:16:52.157Z,63.61
2022-10-11T00:22:13.685Z,63.41
2022-10-11T00:27:35.662Z,63.25
2022-10-11T00:32:58.729Z,63.03
2022-10-11T00:38:20.681Z,62.82
2022-10-11T00:43:43.170Z,62.65
2022-10-11T00:49:11.858Z,62.35
2022-10-11T00:54:37.248Z,62.52
2022-10-11T00:59:59.034Z,62.53
2022-10-11T01:05:29.997Z,62.43
2022-10-11T01:10:52.199Z,62.21
2022-10-11T01:16:26.499Z,62.27
2022-10-11T01:21:57.559Z,62.21
2022-10-11T01:27:44.560Z,62.43
2022-10-11T01:33:30.390Z,62.21
2022-10-11T01:39:09.682Z,62.09
2022-10-11T01:44:34.479Z,61.81
2022-10-11T01:50:00.265Z,61.81
2022-10-11T01:55:31.037Z,61.47
2022-10-11T02:00:58.833Z,61.34
2022-10-11T02:06:41.373Z,61.51
2022-10-11T02:12:06.920Z,61.47
2022-10-11T02:17:32.393Z,61.50
2022-10-11T02:23:00.071Z,61.66
2022-10-11T02:28:25.354Z,61.53
2022-10-11T02:33:53.819Z,61.63
2022-10-11T02:39:25.161Z,61.42
2022-10-11T02:44:53.759Z,61.74
2022-10-11T02:50:16.076Z,61.84
2022-10-11T02:55:37.772Z,62.21
2022-10-11T03:00:59.873Z,61.95
2022-10-11T03:06:21.779Z,62.33
2022-10-11T03:11:43.709Z,62.28
2022-10-11T03:17:31.144Z,62.50
2022-10-11T03:22:47.213Z,62.40
2022-10-11T03:28:09.311Z,62.19
2022-10-11T03:33:31.451Z,61.99
2022-10-11T03:38:53.177Z,62.16
2022-10-11T03:44:14.806Z,62.02
2022-10-11T03:49:39.995Z,62.22
2022-10-11T03:55:05.789Z,62.10
2022-10-11T04:00:27.621Z,62.24
2022-10-11T04:05:49.748Z,62.41
2022-10-11T04:11:11.677Z,62.51
2022-10-11T04:16:33.237Z,63.69
2022-10-11T04:21:55.028Z,64.77
2022-10-11T04:27:16.564Z,65.55
2022-10-11T04:32:38.027Z,66.70
2022-10-11T04:38:00.050Z,67.72
2022-10-11T04:43:21.899Z,67.88
2022-10-11T04:48:43.376Z,68.08
2022-10-11T04:54:05.525Z,67.87
2022-10-11T04:59:27.336Z,68.39
2022-10-11T05:04:48.894Z,69.13
2022-10-11T05:10:10.754Z,69.29
2022-10-11T05:15:32.563Z,69.40
2022-10-11T05:21:07.845Z,69.61
2022-10-11T05:26:29.949Z,69.53
2022-10-11T05:31:51.485Z,69.87
2022-10-11T05:37:13.081Z,70.07
2022-10-11T05:42:34.914Z,70.35
2022-10-11T05:47:56.339Z,70.66
2022-10-11T05:53:17.969Z,70.59
2022-10-11T05:58:39.797Z,70.77
2022-10-11T06:04:02.704Z,70.94
2022-10-11T06:09:24.304Z,71.07
2022-10-11T06:14:45.980Z,71.07
2022-10-11T06:20:08.536Z,70.85
2022-10-11T06:25:30.200Z,70.96
2022-10-11T06:30:51.673Z,71.25
2022-10-11T06:36:15.008Z,71.00
2022-10-11T06:41:36.642Z,71.30
2022-10-11T06:46:58.172Z,71.08
2022-10-11T06:52:20.188Z,70.71
2022-10-11T06:57:41.757Z,70.42
2022-10-11T07:03:03.636Z,70.45
2022-10-11T07:08:25.517Z,70.70
2022-10-11T07:13:52.522Z,70.31
2022-10-11T07:19:14.356Z,69.95
2022-10-11T07:24:36.179Z,69.95
2022-10-11T07:29:57.490Z,69.70
2022-10-11T07:35:19.433Z,69.67
2022-10-11T07:40:43.099Z,69.47
2022-10-11T07:46:05.871Z,69.17
2022-10-11T07:51:27.772Z,69.10
2022-10-11T07:56:49.359Z,68.99
2022-10-11T08:02:14.250Z,68.97
2022-10-11T08:07:36.706Z,69.32
2022-10-11T08:13:04.467Z,69.44
2022-10-11T08:18:26.357Z,69.62
2022-10-11T08:23:48.268Z,69.95
2022-10-11T08:29:10.046Z,70.03
2022-10-11T08:34:31.948Z,70.04
2022-10-11T08:39:53.266Z,69.87
2022-10-11T08:45:25.095Z,70.08
2022-10-11T08:50:49.730Z,70.24
2022-10-11T08:56:15.332Z,70.34
2022-10-11T09:01:41.090Z,70.47
2022-10-11T09:07:05.778Z,70.64
2022-10-11T09:12:47.561Z,70.46
2022-10-11T09:18:41.170Z,70.19
2022-10-11T09:24:15.212Z,69.53
2022-10-11T09:29:51.709Z,69.25
2022-10-11T09:35:17.699Z,69.13
2022-10-11T09:40:51.926Z,69.12
2022-10-11T09:46:21.530Z,69.19
2022-10-11T09:51:47.521Z,69.04
2022-10-11T09:57:24.670Z,68.89
2022-10-11T10:02:49.493Z,68.69
2022-10-11T10:08:11.481Z,68.32
2022-10-11T10:13:43.753Z,67.80
2022-10-11T10:19:08.642Z,67.57
2022-10-11T10:24:37.922Z,67.89
2022-10-11T10:30:08.923Z,68.07
2022-10-11T10:35:39.423Z,68.13
2022-10-11T10:41:06.923Z,67.96
2022-10-11T10:46:46.689Z,67.52
2022-10-11T10:52:46.604Z,67.31
2022-10-11T10:58:34.911Z,67.06
2022-10-11T11:04:08.076Z,67.07
2022-10-11T11:09:35.450Z,66.42
2022-10-11T11:15:08.750Z,66.06
2022-10-11T11:21:04.136Z,65.66
2022-10-11T11:26:47.127Z,65.35
2022-10-11T11:32:12.894Z,64.94
2022-10-11T11:37:37.791Z,64.52
2022-10-11T11:43:03.312Z,63.45
2022-10-11T11:48:26.588Z,63.07
2022-10-11T11:54:22.399Z,62.09
2022-10-11T11:59:53.188Z,60.07
2022-10-11T12:05:18.382Z,58.61
2022-10-11T12:10:49.214Z,57.16
2022-10-11T12:16:13.624Z,56.56
2022-10-11T12:21:41.168Z,54.83
2022-10-11T12:27:36.820Z,55.11
2022-10-11T12:33:21.682Z,54.18
2022-10-11T12:38:43.820Z,54.08
2022-10-11T12:44:26.393Z,53.73
2022-10-11T12:49:59.446Z,53.32
2022-10-11T12:55:34.165Z,52.92
2022-10-11T13:00:56.386Z,53.24
2022-10-11T13:06:19.674Z,53.50
2022-10-11T13:12:02.538Z,53.29
2022-10-11T13:17:37.304Z,53.24
2022-10-11T13:23:00.485Z,51.90
2022-10-11T13:28:22.815Z,51.40
2022-10-11T13:33:45.392Z,51.39
2022-10-11T13:39:08.060Z,50.68
2022-10-11T13:44:32.643Z,50.70
2022-10-11T13:50:34.632Z,50.68
2022-10-11T13:56:04.561Z,50.04
2022-10-11T14:01:28.465Z,49.59
2022-10-11T14:07:02.487Z,49.64
2022-10-11T14:12:33.847Z,49.71
2022-10-11T14:17:55.580Z,49.69
2022-10-11T14:23:17.006Z,49.54
2022-10-11T14:28:39.065Z,49.93
2022-10-11T14:34:01.267Z,50.46
2022-10-11T14:39:24.958Z,50.80
2022-10-11T14:44:46.535Z,50.69
2022-10-11T14:50:30.445Z,50.99
2022-10-11T14:55:52.569Z,51.29
2022-10-11T15:01:16.253Z,51.60
2022-10-11T15:06:40.139Z,51.97
2022-10-11T15:12:01.867Z,52.44
2022-10-11T15:17:23.502Z,52.55
2022-10-11T15:22:45.162Z,52.73
2022-10-11T15:28:07.864Z,52.94
2022-10-11T15:33:29.685Z,53.23
2022-10-11T15:38:51.715Z,53.29
2022-10-11T15:44:13.380Z,53.26
2022-10-11T15:49:35.573Z,53.66
2022-10-11T15:54:57.513Z,54.04
2022-10-11T16:00:22.269Z,54.62
2022-10-11T16:05:44.414Z,55.30
2022-10-11T16:11:07.478Z,56.01
2022-10-11T16:16:29.193Z,56.48
2022-10-11T16:21:50.664Z,57.09
2022-10-11T16:27:16.436Z,57.57
2022-10-11T16:32:40.959Z,58.03
2022-10-11T16:38:02.681Z,58.63
2022-10-11T16:43:24.402Z,59.76
2022-10-11T16:48:46.106Z,60.24
2022-10-11T16:54:08.158Z,60.65
2022-10-11T16:59:29.927Z,61.30
2022-10-11T17:04:54.124Z,61.97
2022-10-11T17:10:16.234Z,62.83
2022-10-11T17:15:39.791Z,63.06
2022-10-11T17:21:08.086Z,63.46
2022-10-11T17:26:29.616Z,64.17
2022-10-11T17:31:51.606Z,64.59
2022-10-11T17:37:13.226Z,65.15
2022-10-11T17:42:34.766Z,65.34
2022-10-11T17:47:56.683Z,65.63
2022-10-11T17:53:18.716Z,65.79
2022-10-11T17:58:40.833Z,65.96
2022-10-11T18:04:04.622Z,66.26
2022-10-11T18:09:27.271Z,66.42
2022-10-11T18:14:48.938Z,66.60
2022-10-11T18:20:13.778Z,67.03
2022-10-11T18:25:37.928Z,67.23
2022-10-11T18:31:00.672Z,67.62
2022-10-11T18:36:28.539Z,67.85
2022-10-11T18:41:49.926Z,67.89
2022-10-11T18:47:11.823Z,67.90
2022-10-11T18:52:33.583Z,67.84
2022-10-11T18:57:55.321Z,68.09
2022-10-11T19:03:17.359Z,68.75
2022-10-11T19:08:38.971Z,68.85
2022-10-11T19:14:08.917Z,68.87
2022-10-11T19:19:31.107Z,69.67
2022-10-11T19:24:52.923Z,70.39
2022-10-11T19:30:14.865Z,70.40
2022-10-11T19:35:36.467Z,70.44
2022-10-11T19:41:00.120Z,70.31
2022-10-11T19:52:03.994Z,70.45
2022-10-11T19:57:26.071Z,70.04
2022-10-11T20:02:48.971Z,69.72
2022-10-11T20:08:10.574Z,69.61
2022-10-11T20:13:34.987Z,69.76
2022-10-11T20:19:00.922Z,69.70
2022-10-11T20:24:22.565Z,70.20
2022-10-11T20:29:44.431Z,69.97
2022-10-11T20:35:06.360Z,69.62
2022-10-11T20:40:28.147Z,69.40
2022-10-11T20:46:10.562Z,69.95
2022-10-11T20:51:34.217Z,69.99
2022-10-11T20:56:57.513Z,69.39
2022-10-11T21:02:19.395Z,69.93
2022-10-11T21:07:41.060Z,69.61
2022-10-11T21:13:03.050Z,70.27
2022-10-11T21:18:25.481Z,71.02
2022-10-11T21:23:46.950Z,70.69
2022-10-11T21:29:08.818Z,70.49
2022-10-11T21:34:30.569Z,69.94
2022-10-11T21:39:52.159Z,69.84
2022-10-11T21:45:13.751Z,69.64
2022-10-11T21:50:35.359Z,69.73
2022-10-11T21:56:01.203Z,69.82
2022-10-11T22:01:23.607Z,70.12
2022-10-11T22:06:45.573Z,70.16
2022-10-11T22:12:07.686Z,70.42
2022-10-11T22:17:29.468Z,71.20
2022-10-11T22:22:50.930Z,71.69
2022-10-11T22:28:12.826Z,72.15
2022-10-11T22:33:35.087Z,72.56
2022-10-11T22:38:56.817Z,72.85
2022-10-11T22:44:18.538Z,73.18
2022-10-11T22:49:39.788Z,73.00
2022-10-11T22:55:01.768Z,72.13
2022-10-11T23:00:23.384Z,71.70
2022-10-11T23:05:54.534Z,72.17
2022-10-11T23:11:16.737Z,72.76
2022-10-11T23:16:38.272Z,72.52
2022-10-11T23:22:00.247Z,72.22
2022-10-11T23:27:21.925Z,72.42
2022-10-11T23:32:43.852Z,72.86
2022-10-11T23:38:05.479Z,73.48
2022-10-11T23:43:27.176Z,73.77
2022-10-11T23:48:48.930Z,74.50
2022-10-11T23:54:10.548Z,74.60
2022-10-11T23:59:32.395Z,73.50
